createdAt,value
2023-03-08T00:00:03.674Z,6.86
2023-03-08T00:00:14.665Z,6.84
2023-03-08T00:00:25.431Z,6.86
2023-03-08T00:00:36.490Z,6.89
2023-03-08T00:00:47.463Z,6.86
2023-03-08T00:00:58.210Z,6.87
2023-03-08T00:01:09.263Z,6.84
2023-03-08T00:01:20.233Z,6.86
2023-03-08T00:01:31.001Z,6.84
2023-03-08T00:01:42.051Z,6.89
2023-03-08T00:01:53.112Z,6.81
2023-03-08T00:02:03.852Z,6.81
2023-03-08T00:02:14.907Z,6.84
2023-03-08T00:02:25.887Z,6.86
2023-03-08T00:02:36.651Z,6.90
2023-03-08T00:02:47.775Z,6.84
2023-03-08T00:02:58.802Z,6.83
2023-03-08T00:03:09.557Z,6.90
2023-03-08T00:03:20.598Z,6.89
2023-03-08T00:03:31.608Z,6.95
2023-03-08T00:03:42.403Z,6.94
2023-03-08T00:03:52.974Z,6.89
2023-03-08T00:04:04.012Z,6.83
2023-03-08T00:04:14.947Z,6.90
2023-03-08T00:04:25.527Z,6.86
2023-03-08T00:04:36.510Z,6.95
2023-03-08T00:04:47.301Z,6.90
2023-03-08T00:04:58.379Z,6.95
2023-03-08T00:05:09.311Z,6.91
2023-03-08T00:05:20.078Z,6.90
2023-03-08T00:05:31.121Z,6.89
2023-03-08T00:05:42.099Z,6.86
2023-03-08T00:05:52.855Z,6.95
2023-03-08T00:06:03.907Z,6.87
2023-03-08T00:06:14.980Z,6.86
2023-03-08T00:06:25.738Z,6.91
2023-03-08T00:06:36.787Z,6.89
2023-03-08T00:06:47.767Z,6.94
2023-03-08T00:06:58.530Z,6.90
2023-03-08T00:07:09.593Z,6.89
2023-03-08T00:07:20.565Z,6.95
2023-03-08T00:07:31.342Z,6.91
2023-03-08T00:07:42.458Z,6.97
2023-03-08T00:07:53.412Z,6.89
2023-03-08T00:08:04.193Z,6.91
2023-03-08T00:08:15.342Z,6.91
2023-03-08T00:08:26.326Z,6.90
2023-03-08T00:08:37.096Z,6.95
2023-03-08T00:08:48.161Z,6.89
2023-03-08T00:08:59.141Z,6.90
2023-03-08T00:09:09.909Z,6.95
2023-03-08T00:09:20.960Z,6.89
2023-03-08T00:09:31.919Z,6.94
2023-03-08T00:09:42.688Z,6.91
2023-03-08T00:09:53.783Z,6.91
2023-03-08T00:10:04.715Z,6.97
2023-03-08T00:10:15.484Z,6.94
2023-03-08T00:10:26.528Z,6.90
2023-03-08T00:10:37.557Z,6.95
2023-03-08T00:10:48.268Z,6.94
2023-03-08T00:10:59.336Z,6.94
2023-03-08T00:11:10.292Z,6.89
2023-03-08T00:11:21.062Z,6.97
2023-03-08T00:11:32.139Z,6.90
2023-03-08T00:11:43.101Z,6.94
2023-03-08T00:11:53.900Z,6.99
2023-03-08T00:12:04.961Z,6.94
2023-03-08T00:12:15.919Z,6.91
2023-03-08T00:12:26.683Z,6.94
2023-03-08T00:12:37.840Z,6.94
2023-03-08T00:12:48.767Z,6.91
2023-03-08T00:12:59.548Z,6.98
2023-03-08T00:13:10.591Z,6.91
2023-03-08T00:13:21.564Z,6.95
2023-03-08T00:13:32.324Z,6.97
2023-03-08T00:13:43.425Z,6.87
2023-03-08T00:13:54.379Z,6.98
2023-03-08T00:14:05.150Z,6.94
2023-03-08T00:14:16.213Z,6.90
2023-03-08T00:14:27.181Z,6.95
2023-03-08T00:14:37.953Z,6.97
2023-03-08T00:14:49.005Z,6.90
2023-03-08T00:14:59.978Z,6.89
2023-03-08T00:15:10.774Z,6.91
2023-03-08T00:15:21.785Z,6.90
2023-03-08T00:15:32.802Z,6.94
2023-03-08T00:15:43.626Z,6.97
2023-03-08T00:15:54.136Z,6.91
2023-03-08T00:16:05.133Z,6.90
2023-03-08T00:16:16.077Z,6.94
2023-03-08T00:16:27.264Z,6.97
2023-03-08T00:16:37.709Z,6.95
2023-03-08T00:16:48.507Z,6.94
2023-03-08T00:16:59.546Z,6.91
2023-03-08T00:17:10.528Z,6.87
2023-03-08T00:17:21.285Z,6.94
2023-03-08T00:17:32.335Z,6.89
2023-03-08T00:17:43.310Z,6.94
2023-03-08T00:17:54.084Z,6.91
2023-03-08T00:18:05.154Z,6.91
2023-03-08T00:18:16.106Z,6.95
2023-03-08T00:18:26.869Z,6.97
2023-03-08T00:18:37.913Z,6.91
2023-03-08T00:18:48.887Z,6.90
2023-03-08T00:18:59.692Z,6.89
2023-03-08T00:19:10.748Z,6.90
2023-03-08T00:19:21.695Z,6.90
2023-03-08T00:19:32.462Z,6.90
2023-03-08T00:19:43.503Z,6.90
2023-03-08T00:19:54.470Z,6.91
2023-03-08T00:20:05.241Z,6.91
2023-03-08T00:20:16.328Z,6.87
2023-03-08T00:20:27.289Z,6.94
2023-03-08T00:20:38.041Z,6.94
2023-03-08T00:20:49.087Z,6.86
2023-03-08T00:21:00.052Z,6.86
2023-03-08T00:21:10.838Z,6.90
2023-03-08T00:21:21.898Z,6.84
2023-03-08T00:21:32.856Z,6.83
2023-03-08T00:21:43.626Z,6.84
2023-03-08T00:21:54.662Z,6.84
2023-03-08T00:22:05.648Z,6.84
2023-03-08T00:22:16.612Z,6.83
2023-03-08T00:22:27.663Z,6.79
2023-03-08T00:22:38.634Z,6.86
2023-03-08T00:22:49.415Z,6.86
2023-03-08T00:23:00.506Z,6.81
2023-03-08T00:23:11.452Z,6.79
2023-03-08T00:23:22.214Z,6.86
2023-03-08T00:23:33.272Z,6.86
2023-03-08T00:23:44.239Z,6.83
2023-03-08T00:23:55.034Z,6.81
2023-03-08T00:24:06.079Z,6.83
2023-03-08T00:24:17.026Z,6.80
2023-03-08T00:24:27.791Z,6.83
2023-03-08T00:24:38.849Z,6.81
2023-03-08T00:24:49.808Z,6.79
2023-03-08T00:25:00.575Z,6.81
2023-03-08T00:25:11.609Z,6.79
2023-03-08T00:25:22.629Z,6.81
2023-03-08T00:25:33.341Z,6.79
2023-03-08T00:25:44.421Z,6.79
2023-03-08T00:25:55.372Z,6.79
2023-03-08T00:26:06.147Z,6.81
2023-03-08T00:26:17.200Z,6.79
2023-03-08T00:26:28.173Z,6.80
2023-03-08T00:26:39.143Z,6.79
2023-03-08T00:26:50.181Z,6.79
2023-03-08T00:27:01.197Z,6.77
2023-03-08T00:27:11.958Z,6.83
2023-03-08T00:27:23.017Z,6.80
2023-03-08T00:27:33.986Z,6.79
2023-03-08T00:27:44.752Z,6.81
2023-03-08T00:27:55.812Z,6.80
2023-03-08T00:28:06.784Z,6.79
2023-03-08T00:28:17.566Z,6.80
2023-03-08T00:28:28.666Z,6.80
2023-03-08T00:28:39.620Z,6.77
2023-03-08T00:28:50.454Z,6.81
2023-03-08T00:29:01.022Z,6.77
2023-03-08T00:29:12.055Z,6.80
2023-03-08T00:29:22.851Z,6.80
2023-03-08T00:29:33.867Z,6.81
2023-03-08T00:29:44.824Z,6.77
2023-03-08T00:29:55.596Z,6.81
2023-03-08T00:30:06.714Z,6.80
2023-03-08T00:30:17.637Z,6.79
2023-03-08T00:30:28.441Z,6.80
2023-03-08T00:30:38.965Z,6.72
2023-03-08T00:30:49.926Z,6.73
2023-03-08T00:31:00.794Z,6.76
2023-03-08T00:31:11.278Z,6.72
2023-03-08T00:31:22.330Z,6.77
2023-03-08T00:31:33.045Z,6.76
2023-03-08T00:31:44.149Z,6.77
2023-03-08T00:31:55.154Z,6.77
2023-03-08T00:32:05.987Z,6.76
2023-03-08T00:32:17.146Z,6.79
2023-03-08T00:32:27.641Z,6.77
2023-03-08T00:32:38.441Z,6.80
2023-03-08T00:32:49.478Z,6.76
2023-03-08T00:33:00.468Z,6.76
2023-03-08T00:33:11.248Z,6.73
2023-03-08T00:33:22.278Z,6.71
2023-03-08T00:33:33.275Z,6.73
2023-03-08T00:33:44.133Z,6.76
2023-03-08T00:33:54.609Z,6.72
2023-03-08T00:34:05.561Z,6.77
2023-03-08T00:34:16.335Z,6.72
2023-03-08T00:34:27.388Z,6.71
2023-03-08T00:34:38.355Z,6.72
2023-03-08T00:34:49.114Z,6.72
2023-03-08T00:35:00.160Z,6.68
2023-03-08T00:35:11.213Z,6.73
2023-03-08T00:35:22.097Z,6.69
2023-03-08T00:35:32.563Z,6.68
2023-03-08T00:35:43.530Z,6.66
2023-03-08T00:35:54.324Z,6.71
2023-03-08T00:36:05.334Z,6.66
2023-03-08T00:36:16.348Z,6.66
2023-03-08T00:36:27.100Z,6.68
2023-03-08T00:36:38.161Z,6.61
2023-03-08T00:36:49.130Z,6.63
2023-03-08T00:36:59.891Z,6.63
2023-03-08T00:37:10.948Z,6.65
2023-03-08T00:37:21.908Z,6.63
2023-03-08T00:37:32.688Z,6.63
2023-03-08T00:37:43.739Z,6.63
2023-03-08T00:37:54.737Z,6.68
2023-03-08T00:38:05.486Z,6.63
2023-03-08T00:38:16.573Z,6.63
2023-03-08T00:38:27.602Z,6.65
2023-03-08T00:38:38.315Z,6.59
2023-03-08T00:38:49.362Z,6.65
2023-03-08T00:39:00.417Z,6.61
2023-03-08T00:39:11.149Z,6.59
2023-03-08T00:39:22.233Z,6.63
2023-03-08T00:39:33.185Z,6.59
2023-03-08T00:39:43.952Z,6.63
2023-03-08T00:39:55.019Z,6.58
2023-03-08T00:40:05.986Z,6.61
2023-03-08T00:40:16.768Z,6.59
2023-03-08T00:40:27.837Z,6.61
2023-03-08T00:40:38.796Z,6.61
2023-03-08T00:40:49.596Z,6.61
2023-03-08T00:41:00.621Z,6.59
2023-03-08T00:41:11.606Z,6.56
2023-03-08T00:41:22.373Z,6.59
2023-03-08T00:41:33.425Z,6.59
2023-03-08T00:41:44.403Z,6.58
2023-03-08T00:41:55.170Z,6.56
2023-03-08T00:42:06.275Z,6.58
2023-03-08T00:42:17.242Z,6.56
2023-03-08T00:42:28.007Z,6.59
2023-03-08T00:42:39.103Z,6.54
2023-03-08T00:42:50.077Z,6.56
2023-03-08T00:43:00.864Z,6.58
2023-03-08T00:43:11.927Z,6.53
2023-03-08T00:43:22.873Z,6.58
2023-03-08T00:43:33.642Z,6.58
2023-03-08T00:43:44.683Z,6.58
2023-03-08T00:43:55.660Z,6.54
2023-03-08T00:44:06.490Z,6.58
2023-03-08T00:44:17.535Z,6.56
2023-03-08T00:44:28.495Z,6.54
2023-03-08T00:44:39.302Z,6.59
2023-03-08T00:44:50.315Z,6.53
2023-03-08T00:45:01.292Z,6.50
2023-03-08T00:45:12.096Z,6.56
2023-03-08T00:45:23.125Z,6.53
2023-03-08T00:45:34.118Z,6.51
2023-03-08T00:45:44.982Z,6.59
2023-03-08T00:45:55.521Z,6.53
2023-03-08T00:46:06.474Z,6.53
2023-03-08T00:46:17.314Z,6.59
2023-03-08T00:46:28.388Z,6.50
2023-03-08T00:46:39.372Z,6.51
2023-03-08T00:46:50.317Z,6.50
2023-03-08T00:47:00.950Z,6.54
2023-03-08T00:47:11.350Z,6.51
2023-03-08T00:47:22.118Z,6.56
2023-03-08T00:47:33.195Z,6.53
2023-03-08T00:47:44.165Z,6.53
2023-03-08T00:47:54.934Z,6.51
2023-03-08T00:48:05.991Z,6.54
2023-03-08T00:48:17.073Z,6.53
2023-03-08T00:48:27.791Z,6.53
2023-03-08T00:48:38.841Z,6.54
2023-03-08T00:48:49.818Z,6.46
2023-03-08T00:49:00.590Z,6.51
2023-03-08T00:49:11.664Z,6.50
2023-03-08T00:49:22.676Z,6.51
2023-03-08T00:49:33.440Z,6.54
2023-03-08T00:49:44.539Z,6.48
2023-03-08T00:49:55.453Z,6.51
2023-03-08T00:50:06.216Z,6.48
2023-03-08T00:50:17.273Z,6.51
2023-03-08T00:50:28.242Z,6.51
2023-03-08T00:50:39.064Z,6.48
2023-03-08T00:50:49.594Z,6.48
2023-03-08T00:51:00.595Z,6.44
2023-03-08T00:51:11.354Z,6.46
2023-03-08T00:51:22.399Z,6.53
2023-03-08T00:51:33.368Z,6.46
2023-03-08T00:51:44.157Z,6.51
2023-03-08T00:51:55.187Z,6.48
2023-03-08T00:52:06.193Z,6.47
2023-03-08T00:52:17.011Z,6.56
2023-03-08T00:52:28.008Z,6.53
2023-03-08T00:52:38.988Z,6.50
2023-03-08T00:52:49.969Z,6.50
2023-03-08T00:53:01.014Z,6.47
2023-03-08T00:53:11.989Z,6.46
2023-03-08T00:53:22.791Z,6.51
2023-03-08T00:53:33.834Z,6.46
2023-03-08T00:53:44.818Z,6.44
2023-03-08T00:53:55.572Z,6.48
2023-03-08T00:54:06.621Z,6.48
2023-03-08T00:54:17.636Z,6.46
2023-03-08T00:54:28.416Z,6.46
2023-03-08T00:54:39.482Z,6.46
2023-03-08T00:54:50.450Z,6.53
2023-03-08T00:55:01.247Z,6.44
2023-03-08T00:55:12.268Z,6.48
2023-03-08T00:55:23.235Z,6.48
2023-03-08T00:55:34.052Z,6.47
2023-03-08T00:55:45.054Z,6.50
2023-03-08T00:55:56.052Z,6.48
2023-03-08T00:56:06.789Z,6.50
2023-03-08T00:56:17.848Z,6.51
2023-03-08T00:56:28.822Z,6.48
2023-03-08T00:56:39.604Z,6.47
2023-03-08T00:56:50.653Z,6.44
2023-03-08T00:57:01.730Z,6.53
2023-03-08T00:57:12.638Z,6.48
2023-03-08T00:57:23.706Z,6.51
2023-03-08T00:57:34.674Z,6.41
2023-03-08T00:57:45.441Z,6.46
2023-03-08T00:57:56.494Z,6.50
2023-03-08T00:58:07.486Z,6.54
2023-03-08T00:58:18.272Z,6.50
2023-03-08T00:58:29.339Z,6.47
2023-03-08T00:58:40.292Z,6.46
2023-03-08T00:58:51.060Z,6.50
2023-03-08T00:59:02.105Z,6.47
2023-03-08T00:59:13.110Z,6.53
2023-03-08T00:59:23.875Z,6.48
2023-03-08T00:59:34.966Z,6.44
2023-03-08T00:59:45.900Z,6.46
2023-03-08T00:59:56.665Z,6.54
2023-03-08T01:00:07.711Z,6.54
2023-03-08T01:00:18.678Z,6.47
2023-03-08T01:00:29.450Z,6.51
2023-03-08T01:00:40.539Z,6.47
2023-03-08T01:00:51.553Z,6.48
2023-03-08T01:01:02.347Z,6.50
2023-03-08T01:01:12.917Z,6.48
2023-03-08T01:01:23.854Z,6.47
2023-03-08T01:01:34.624Z,6.51
2023-03-08T01:01:45.667Z,6.48
2023-03-08T01:01:56.638Z,6.50
2023-03-08T01:02:07.401Z,6.51
2023-03-08T01:02:18.467Z,6.46
2023-03-08T01:02:29.455Z,6.47
2023-03-08T01:02:40.204Z,6.47
2023-03-08T01:02:51.271Z,6.48
2023-03-08T01:03:02.254Z,6.48
2023-03-08T01:03:13.053Z,6.50
2023-03-08T01:03:23.564Z,6.48
2023-03-08T01:03:34.541Z,6.47
2023-03-08T01:03:45.322Z,6.48
2023-03-08T01:03:56.408Z,6.48
2023-03-08T01:04:07.462Z,6.48
2023-03-08T01:04:18.194Z,6.53
2023-03-08T01:04:29.239Z,6.47
2023-03-08T01:04:40.203Z,6.48
2023-03-08T01:04:50.990Z,6.48
2023-03-08T01:05:02.063Z,6.46
2023-03-08T01:05:12.988Z,6.46
2023-03-08T01:05:23.777Z,6.48
2023-03-08T01:05:34.303Z,6.44
2023-03-08T01:05:45.351Z,6.46
2023-03-08T01:05:56.057Z,6.51
2023-03-08T01:06:07.114Z,6.47
2023-03-08T01:06:18.092Z,6.46
2023-03-08T01:06:28.866Z,6.48
2023-03-08T01:06:39.927Z,6.44
2023-03-08T01:06:50.914Z,6.44
2023-03-08T01:07:01.678Z,6.44
2023-03-08T01:07:12.731Z,6.47
2023-03-08T01:07:23.709Z,6.47
2023-03-08T01:07:34.464Z,6.48
2023-03-08T01:07:45.519Z,6.44
2023-03-08T01:07:56.498Z,6.43
2023-03-08T01:08:07.281Z,6.46
2023-03-08T01:08:18.362Z,6.47
2023-03-08T01:08:29.327Z,6.43
2023-03-08T01:08:40.175Z,6.46
2023-03-08T01:08:50.673Z,6.36
2023-03-08T01:09:01.638Z,6.43
2023-03-08T01:09:12.402Z,6.44
2023-03-08T01:09:23.441Z,6.44
2023-03-08T01:09:34.417Z,6.44
2023-03-08T01:09:45.226Z,6.47
2023-03-08T01:09:56.252Z,6.43
2023-03-08T01:10:07.216Z,6.43
2023-03-08T01:10:17.973Z,6.44
2023-03-08T01:10:29.033Z,6.43
2023-03-08T01:10:40.000Z,6.46
2023-03-08T01:10:50.770Z,6.44
2023-03-08T01:11:01.858Z,6.43
2023-03-08T01:11:12.801Z,6.43
2023-03-08T01:11:23.568Z,6.47
2023-03-08T01:11:34.610Z,6.44
2023-03-08T01:11:45.585Z,6.46
2023-03-08T01:11:56.378Z,6.41
2023-03-08T01:12:07.506Z,6.46
2023-03-08T01:12:18.423Z,6.43
2023-03-08T01:12:29.177Z,6.44
2023-03-08T01:12:40.230Z,6.43
2023-03-08T01:12:51.214Z,6.41
2023-03-08T01:13:02.164Z,6.43
2023-03-08T01:13:13.225Z,6.48
2023-03-08T01:13:24.235Z,6.44
2023-03-08T01:13:35.019Z,6.46
2023-03-08T01:13:46.067Z,6.46
2023-03-08T01:13:57.056Z,6.46
2023-03-08T01:14:08.043Z,6.46
2023-03-08T01:14:19.078Z,6.43
2023-03-08T01:14:30.044Z,6.44
2023-03-08T01:14:40.842Z,6.46
2023-03-08T01:14:51.358Z,6.46
2023-03-08T01:15:02.350Z,6.44
2023-03-08T01:15:13.142Z,6.43
2023-03-08T01:15:23.662Z,6.41
2023-03-08T01:15:34.618Z,6.40
2023-03-08T01:15:45.593Z,6.43
2023-03-08T01:15:56.654Z,6.38
2023-03-08T01:16:08.127Z,6.41
2023-03-08T01:16:18.339Z,6.44
2023-03-08T01:16:29.409Z,6.44
2023-03-08T01:16:40.398Z,6.40
2023-03-08T01:16:51.154Z,6.40
2023-03-08T01:17:02.194Z,6.43
2023-03-08T01:17:13.215Z,6.41
2023-03-08T01:17:24.013Z,6.40
2023-03-08T01:17:35.094Z,6.40
2023-03-08T01:17:46.049Z,6.41
2023-03-08T01:17:56.823Z,6.40
2023-03-08T01:18:07.881Z,6.40
2023-03-08T01:18:18.865Z,6.38
2023-03-08T01:18:29.627Z,6.38
2023-03-08T01:18:40.702Z,6.43
2023-03-08T01:18:51.660Z,6.41
2023-03-08T01:19:02.448Z,6.36
2023-03-08T01:19:13.494Z,6.44
2023-03-08T01:19:24.493Z,6.36
2023-03-08T01:19:35.257Z,6.43
2023-03-08T01:19:46.323Z,6.38
2023-03-08T01:19:57.280Z,6.40
2023-03-08T01:20:08.051Z,6.43
2023-03-08T01:20:19.111Z,6.36
2023-03-08T01:20:30.068Z,6.40
2023-03-08T01:20:40.832Z,6.40
2023-03-08T01:20:51.941Z,6.38
2023-03-08T01:21:02.875Z,6.40
2023-03-08T01:21:13.641Z,6.41
2023-03-08T01:21:24.707Z,6.38
2023-03-08T01:21:35.703Z,6.38
2023-03-08T01:21:46.439Z,6.38
2023-03-08T01:21:57.544Z,6.44
2023-03-08T01:22:08.508Z,6.41
2023-03-08T01:22:19.266Z,6.35
2023-03-08T01:22:30.308Z,6.35
2023-03-08T01:22:41.292Z,6.41
2023-03-08T01:22:52.093Z,6.40
2023-03-08T01:23:03.168Z,6.35
2023-03-08T01:23:14.137Z,6.35
2023-03-08T01:23:24.906Z,6.43
2023-03-08T01:23:36.018Z,6.36
2023-03-08T01:23:46.969Z,6.36
2023-03-08T01:23:57.736Z,6.38
2023-03-08T01:24:08.774Z,6.33
2023-03-08T01:24:19.756Z,6.35
2023-03-08T01:24:30.525Z,6.36
2023-03-08T01:24:41.563Z,6.33
2023-03-08T01:24:52.535Z,6.35
2023-03-08T01:25:03.317Z,6.36
2023-03-08T01:25:13.913Z,6.33
2023-03-08T01:25:24.843Z,6.32
2023-03-08T01:25:35.677Z,6.40
2023-03-08T01:25:46.688Z,6.32
2023-03-08T01:25:57.654Z,6.32
2023-03-08T01:26:08.441Z,6.36
2023-03-08T01:26:19.465Z,6.36
2023-03-08T01:26:30.432Z,6.33
2023-03-08T01:26:41.286Z,6.38
2023-03-08T01:26:51.755Z,6.32
2023-03-08T01:27:02.784Z,6.32
2023-03-08T01:27:13.689Z,6.30
2023-03-08T01:27:24.729Z,6.35
2023-03-08T01:27:35.711Z,6.30
2023-03-08T01:27:46.487Z,6.32
2023-03-08T01:27:57.540Z,6.29
2023-03-08T01:28:08.505Z,6.28
2023-03-08T01:28:19.349Z,6.32
2023-03-08T01:28:30.361Z,6.32
2023-03-08T01:28:41.325Z,6.29
2023-03-08T01:28:52.113Z,6.28
2023-03-08T01:29:03.171Z,6.30
2023-03-08T01:29:14.132Z,6.25
2023-03-08T01:29:24.899Z,6.33
2023-03-08T01:29:35.977Z,6.29
2023-03-08T01:29:46.936Z,6.30
2023-03-08T01:29:57.686Z,6.30
2023-03-08T01:30:08.791Z,6.29
2023-03-08T01:30:19.753Z,6.33
2023-03-08T01:30:30.522Z,6.32
2023-03-08T01:30:41.576Z,6.28
2023-03-08T01:30:52.542Z,6.29
2023-03-08T01:31:03.314Z,6.29
2023-03-08T01:31:14.356Z,6.30
2023-03-08T01:31:25.360Z,6.30
2023-03-08T01:31:36.097Z,6.28
2023-03-08T01:31:47.144Z,6.29
2023-03-08T01:31:58.115Z,6.30
2023-03-08T01:32:08.903Z,6.26
2023-03-08T01:32:19.962Z,6.29
2023-03-08T01:32:31.019Z,6.30
2023-03-08T01:32:41.795Z,6.29
2023-03-08T01:32:52.785Z,6.29
2023-03-08T01:33:03.754Z,6.26
2023-03-08T01:33:14.725Z,6.29
2023-03-08T01:33:25.798Z,6.32
2023-03-08T01:33:36.793Z,6.28
2023-03-08T01:33:47.541Z,6.29
2023-03-08T01:33:58.613Z,6.28
2023-03-08T01:34:09.575Z,6.29
2023-03-08T01:34:20.347Z,6.30
2023-03-08T01:34:31.395Z,6.26
2023-03-08T01:34:42.364Z,6.29
2023-03-08T01:34:53.176Z,6.30
2023-03-08T01:35:04.193Z,6.30
2023-03-08T01:35:15.164Z,6.26
2023-03-08T01:35:25.945Z,6.29
2023-03-08T01:35:37.001Z,6.28
2023-03-08T01:35:47.985Z,6.25
2023-03-08T01:35:58.816Z,6.33
2023-03-08T01:36:09.863Z,6.26
2023-03-08T01:36:20.827Z,6.26
2023-03-08T01:36:31.589Z,6.32
2023-03-08T01:36:42.650Z,6.29
2023-03-08T01:36:53.605Z,6.26
2023-03-08T01:37:04.373Z,6.28
2023-03-08T01:37:15.481Z,6.26
2023-03-08T01:37:26.387Z,6.28
2023-03-08T01:37:37.152Z,6.29
2023-03-08T01:37:48.212Z,6.28
2023-03-08T01:37:59.171Z,6.26
2023-03-08T01:38:09.952Z,6.28
2023-03-08T01:38:21.015Z,6.26
2023-03-08T01:38:32.105Z,6.25
2023-03-08T01:38:42.837Z,6.29
2023-03-08T01:38:53.900Z,6.25
2023-03-08T01:39:04.891Z,6.28
2023-03-08T01:39:15.635Z,6.26
2023-03-08T01:39:26.699Z,6.25
2023-03-08T01:39:37.672Z,6.30
2023-03-08T01:39:48.452Z,6.22
2023-03-08T01:39:59.560Z,6.26
2023-03-08T01:40:10.478Z,6.25
2023-03-08T01:40:21.263Z,6.28
2023-03-08T01:40:32.302Z,6.22
2023-03-08T01:40:43.268Z,6.26
2023-03-08T01:40:54.041Z,6.22
2023-03-08T01:41:05.143Z,6.21
2023-03-08T01:41:16.091Z,6.26
2023-03-08T01:41:26.834Z,6.28
2023-03-08T01:41:37.893Z,6.22
2023-03-08T01:41:48.888Z,6.21
2023-03-08T01:41:59.838Z,6.26
2023-03-08T01:42:10.904Z,6.25
2023-03-08T01:42:21.862Z,6.19
2023-03-08T01:42:32.629Z,6.25
2023-03-08T01:42:43.681Z,6.22
2023-03-08T01:42:54.687Z,6.25
2023-03-08T01:43:05.424Z,6.26
2023-03-08T01:43:16.475Z,6.26
2023-03-08T01:43:27.446Z,6.28
2023-03-08T01:43:38.216Z,6.26
2023-03-08T01:43:49.264Z,6.25
2023-03-08T01:44:00.282Z,6.21
2023-03-08T01:44:11.056Z,6.22
2023-03-08T01:44:22.107Z,6.22
2023-03-08T01:44:33.114Z,6.22
2023-03-08T01:44:43.866Z,6.26
2023-03-08T01:44:54.916Z,6.26
2023-03-08T01:45:05.883Z,6.25
2023-03-08T01:45:16.651Z,6.22
2023-03-08T01:45:27.722Z,6.25
2023-03-08T01:45:38.687Z,6.28
2023-03-08T01:45:49.491Z,6.21
2023-03-08T01:46:00.491Z,6.25
2023-03-08T01:46:11.476Z,6.25
2023-03-08T01:46:22.433Z,6.22
2023-03-08T01:46:33.529Z,6.21
2023-03-08T01:46:44.488Z,6.19
2023-03-08T01:46:55.255Z,6.19
2023-03-08T01:47:06.316Z,6.25
2023-03-08T01:47:17.268Z,6.25
2023-03-08T01:47:28.035Z,6.26
2023-03-08T01:47:39.076Z,6.22
2023-03-08T01:47:50.062Z,6.19
2023-03-08T01:48:00.809Z,6.22
2023-03-08T01:48:11.857Z,6.25
2023-03-08T01:48:22.825Z,6.18
2023-03-08T01:48:33.593Z,6.21
2023-03-08T01:48:44.709Z,6.22
2023-03-08T01:48:55.651Z,6.25
2023-03-08T01:49:06.815Z,6.22
2023-03-08T01:49:17.286Z,6.19
2023-03-08T01:49:28.250Z,6.25
2023-03-08T01:49:39.015Z,6.22
2023-03-08T01:49:50.068Z,6.22
2023-03-08T01:50:01.046Z,6.28
2023-03-08T01:50:11.813Z,6.18
2023-03-08T01:50:22.897Z,6.18
2023-03-08T01:50:33.844Z,6.16
2023-03-08T01:50:44.605Z,6.19
2023-03-08T01:50:55.721Z,6.19
2023-03-08T01:51:06.682Z,6.21
2023-03-08T01:51:17.456Z,6.14
2023-03-08T01:51:28.499Z,6.19
2023-03-08T01:51:39.458Z,6.18
2023-03-08T01:51:50.224Z,6.21
2023-03-08T01:52:01.288Z,6.18
2023-03-08T01:52:12.314Z,6.22
2023-03-08T01:52:23.101Z,6.21
2023-03-08T01:52:34.145Z,6.19
2023-03-08T01:52:45.107Z,6.18
2023-03-08T01:52:55.888Z,6.21
2023-03-08T01:53:06.931Z,6.19
2023-03-08T01:53:17.914Z,6.16
2023-03-08T01:53:28.668Z,6.21
2023-03-08T01:53:39.748Z,6.19
2023-03-08T01:53:50.716Z,6.18
2023-03-08T01:54:01.485Z,6.16
2023-03-08T01:54:12.526Z,6.14
2023-03-08T01:54:23.512Z,6.22
2023-03-08T01:54:34.282Z,6.19
2023-03-08T01:54:45.321Z,6.18
2023-03-08T01:54:56.360Z,6.14
2023-03-08T01:55:07.073Z,6.14
2023-03-08T01:55:18.136Z,6.16
2023-03-08T01:55:29.110Z,6.19
2023-03-08T01:55:39.862Z,6.14
2023-03-08T01:55:50.902Z,6.19
2023-03-08T01:56:01.879Z,6.16
2023-03-08T01:56:12.647Z,6.16
2023-03-08T01:56:23.793Z,6.18
2023-03-08T01:56:34.736Z,6.16
2023-03-08T01:56:45.517Z,6.16
2023-03-08T01:56:56.564Z,6.16
2023-03-08T01:57:07.528Z,6.21
2023-03-08T01:57:18.376Z,6.16
2023-03-08T01:57:28.842Z,6.18
2023-03-08T01:57:39.820Z,6.18
2023-03-08T01:57:50.579Z,6.16
2023-03-08T01:58:01.624Z,6.13
2023-03-08T01:58:12.602Z,6.14
2023-03-08T01:58:23.374Z,6.18
2023-03-08T01:58:34.409Z,6.10
2023-03-08T01:58:45.374Z,6.14
2023-03-08T01:58:56.206Z,6.16
2023-03-08T01:59:06.692Z,6.14
2023-03-08T01:59:17.656Z,6.14
2023-03-08T01:59:28.524Z,6.14
2023-03-08T01:59:39.051Z,6.11
2023-03-08T01:59:50.015Z,6.16
2023-03-08T02:00:00.782Z,6.16
2023-03-08T02:00:11.830Z,6.09
2023-03-08T02:00:22.830Z,6.16
2023-03-08T02:00:33.601Z,6.13
2023-03-08T02:00:44.691Z,6.21
2023-03-08T02:00:55.681Z,6.16
2023-03-08T02:01:06.424Z,6.19
2023-03-08T02:01:17.513Z,6.14
2023-03-08T02:01:28.682Z,6.10
2023-03-08T02:01:39.398Z,6.16
2023-03-08T02:01:50.455Z,6.19
2023-03-08T02:02:01.431Z,6.13
2023-03-08T02:02:12.186Z,6.16
2023-03-08T02:02:23.288Z,6.13
2023-03-08T02:02:34.258Z,6.11
2023-03-08T02:02:45.033Z,6.13
2023-03-08T02:02:56.059Z,6.09
2023-03-08T02:03:07.030Z,6.16
2023-03-08T02:03:17.804Z,6.18
2023-03-08T02:03:28.862Z,6.14
2023-03-08T02:03:39.817Z,6.11
2023-03-08T02:03:50.578Z,6.11
2023-03-08T02:04:01.758Z,6.09
2023-03-08T02:04:12.659Z,6.11
2023-03-08T02:04:23.436Z,6.11
2023-03-08T02:04:34.483Z,6.16
2023-03-08T02:04:45.454Z,6.11
2023-03-08T02:04:56.226Z,6.14
2023-03-08T02:05:07.267Z,6.11
2023-03-08T02:05:18.264Z,6.13
2023-03-08T02:05:29.010Z,6.09
2023-03-08T02:05:40.056Z,6.10
2023-03-08T02:05:51.030Z,6.10
2023-03-08T02:06:01.793Z,6.07
2023-03-08T02:06:12.844Z,6.13
2023-03-08T02:06:23.841Z,6.06
2023-03-08T02:06:34.593Z,6.13
2023-03-08T02:06:45.653Z,6.11
2023-03-08T02:06:56.614Z,6.09
2023-03-08T02:07:07.396Z,6.10
2023-03-08T02:07:18.443Z,6.06
2023-03-08T02:07:29.413Z,6.09
2023-03-08T02:07:40.238Z,6.09
2023-03-08T02:07:51.228Z,6.11
2023-03-08T02:08:02.229Z,6.07
2023-03-08T02:08:12.966Z,6.07
2023-03-08T02:08:24.016Z,6.10
2023-03-08T02:08:34.986Z,6.07
2023-03-08T02:08:45.755Z,6.09
2023-03-08T02:08:56.800Z,6.04
2023-03-08T02:09:07.818Z,6.06
2023-03-08T02:09:18.546Z,6.09
2023-03-08T02:09:29.592Z,6.07
2023-03-08T02:09:40.589Z,6.07
2023-03-08T02:09:51.383Z,6.07
2023-03-08T02:10:02.412Z,6.11
2023-03-08T02:10:13.383Z,6.01
2023-03-08T02:10:24.166Z,6.06
2023-03-08T02:10:35.216Z,6.07
2023-03-08T02:10:46.223Z,6.06
2023-03-08T02:10:56.982Z,6.07
2023-03-08T02:11:08.026Z,6.06
2023-03-08T02:11:19.019Z,6.01
2023-03-08T02:11:29.803Z,6.07
2023-03-08T02:11:40.845Z,6.07
2023-03-08T02:11:51.820Z,6.04
2023-03-08T02:12:02.690Z,6.10
2023-03-08T02:12:13.149Z,6.06
2023-03-08T02:12:24.110Z,6.07
2023-03-08T02:12:34.871Z,6.04
2023-03-08T02:12:45.916Z,6.07
2023-03-08T02:12:56.891Z,6.10
2023-03-08T02:13:07.668Z,6.06
2023-03-08T02:13:18.712Z,6.04
2023-03-08T02:13:29.723Z,6.03
2023-03-08T02:13:40.471Z,6.04
2023-03-08T02:13:51.518Z,6.06
2023-03-08T02:14:02.499Z,6.01
2023-03-08T02:14:13.295Z,6.04
2023-03-08T02:14:24.316Z,6.06
2023-03-08T02:14:35.359Z,6.00
2023-03-08T02:14:46.122Z,6.03
2023-03-08T02:14:57.163Z,6.03
2023-03-08T02:15:08.138Z,6.04
2023-03-08T02:15:18.903Z,6.00
2023-03-08T02:15:29.957Z,6.00
2023-03-08T02:15:40.932Z,6.01
2023-03-08T02:15:51.730Z,6.06
2023-03-08T02:16:02.827Z,6.03
2023-03-08T02:16:13.735Z,6.03
2023-03-08T02:16:24.553Z,6.07
2023-03-08T02:16:35.058Z,6.07
2023-03-08T02:16:46.037Z,6.04
2023-03-08T02:16:56.791Z,6.06
2023-03-08T02:17:07.879Z,6.03
2023-03-08T02:17:18.821Z,6.06
2023-03-08T02:17:29.587Z,6.04
2023-03-08T02:17:40.635Z,6.04
2023-03-08T02:17:51.619Z,6.03
2023-03-08T02:18:02.376Z,6.01
2023-03-08T02:18:13.437Z,6.03
2023-03-08T02:18:24.412Z,6.03
2023-03-08T02:18:35.172Z,6.04
2023-03-08T02:18:46.241Z,6.01
2023-03-08T02:18:57.217Z,6.03
2023-03-08T02:19:08.048Z,6.01
2023-03-08T02:19:19.050Z,6.00
2023-03-08T02:19:30.021Z,6.01
2023-03-08T02:19:40.840Z,6.00
2023-03-08T02:19:51.880Z,6.01
2023-03-08T02:20:02.846Z,6.01
2023-03-08T02:20:13.619Z,6.01
2023-03-08T02:20:24.731Z,6.00
2023-03-08T02:20:35.652Z,6.01
2023-03-08T02:20:46.457Z,5.98
2023-03-08T02:20:56.991Z,5.96
2023-03-08T02:21:08.008Z,5.98
2023-03-08T02:21:18.946Z,5.95
2023-03-08T02:21:29.969Z,5.95
2023-03-08T02:21:40.949Z,5.96
2023-03-08T02:21:51.743Z,5.95
2023-03-08T02:22:02.769Z,5.93
2023-03-08T02:22:13.769Z,5.93
2023-03-08T02:22:24.543Z,5.93
2023-03-08T02:22:35.574Z,5.92
2023-03-08T02:22:46.529Z,5.92
2023-03-08T02:22:57.312Z,5.92
2023-03-08T02:23:08.349Z,5.92
2023-03-08T02:23:19.352Z,5.89
2023-03-08T02:23:30.183Z,5.92
2023-03-08T02:23:41.171Z,5.91
2023-03-08T02:23:52.144Z,5.88
2023-03-08T02:24:02.908Z,5.91
2023-03-08T02:24:13.949Z,5.92
2023-03-08T02:24:24.950Z,5.85
2023-03-08T02:24:35.739Z,5.89
2023-03-08T02:24:46.784Z,5.86
2023-03-08T02:24:57.880Z,5.89
2023-03-08T02:25:08.636Z,5.85
2023-03-08T02:25:19.688Z,5.89